sensor_id;sensor_type;location;lat;lon;timestamp;P1;durP1;ratioP1;P2;durP2;ratioP2
37407;SDS011;24866;50.248;8.252;2023-04-24T00:00:34;1.95;;;0.93;;
37407;SDS011;24866;50.248;8.252;2023-04-24T00:03:06;1.63;;;1.00;;
37407;SDS011;24866;50.248;8.252;2023-04-24T00:05:37;1.63;;;0.90;;
37407;SDS011;24866;50.248;8.252;2023-04-24T00:08:08;2.15;;;1.00;;
37407;SDS011;24866;50.248;8.252;2023-04-24T00:10:38;1.77;;;1.15;;
37407;SDS011;24866;50.248;8.252;2023-04-24T00:13:08;2.55;;;0.70;;
37407;SDS011;24866;50.248;8.252;2023-04-24T00:15:38;2.38;;;1.10;;
37407;SDS011;24866;50.248;8.252;2023-04-24T00:18:07;2.42;;;1.30;;
37407;SDS011;24866;50.248;8.252;2023-04-24T00:20:39;2.00;;;1.20;;
37407;SDS011;24866;50.248;8.252;2023-04-24T00:23:11;3.95;;;1.17;;
37407;SDS011;24866;50.248;8.252;2023-04-24T00:25:41;1.80;;;0.80;;
37407;SDS011;24866;50.248;8.252;2023-04-24T00:28:11;5.20;;;1.67;;
37407;SDS011;24866;50.248;8.252;2023-04-24T00:30:41;3.00;;;1.42;;
37407;SDS011;24866;50.248;8.252;2023-04-24T00:33:11;2.60;;;1.20;;
37407;SDS011;24866;50.248;8.252;2023-04-24T00:35:42;4.53;;;1.70;;
37407;SDS011;24866;50.248;8.252;2023-04-24T00:38:12;3.35;;;1.60;;
37407;SDS011;24866;50.248;8.252;2023-04-24T00:40:42;3.75;;;1.33;;
37407;SDS011;24866;50.248;8.252;2023-04-24T00:43:12;6.13;;;1.65;;
37407;SDS011;24866;50.248;8.252;2023-04-24T00:45:42;3.05;;;2.15;;
37407;SDS011;24866;50.248;8.252;2023-04-24T00:48:15;4.78;;;2.03;;
37407;SDS011;24866;50.248;8.252;2023-04-24T00:50:47;4.93;;;2.00;;
37407;SDS011;24866;50.248;8.252;2023-04-24T00:53:17;3.72;;;1.98;;
37407;SDS011;24866;50.248;8.252;2023-04-24T00:55:48;5.15;;;1.80;;
37407;SDS011;24866;50.248;8.252;2023-04-24T00:58:18;3.60;;;2.05;;
37407;SDS011;24866;50.248;8.252;2023-04-24T01:00:49;5.05;;;1.75;;
37407;SDS011;24866;50.248;8.252;2023-04-24T01:03:21;3.67;;;2.10;;
37407;SDS011;24866;50.248;8.252;2023-04-24T01:05:55;4.00;;;1.90;;
37407;SDS011;24866;50.248;8.252;2023-04-24T01:08:26;4.85;;;1.85;;
37407;SDS011;24866;50.248;8.252;2023-04-24T01:10:57;3.63;;;1.80;;
37407;SDS011;24866;50.248;8.252;2023-04-24T01:13:27;2.58;;;1.55;;
37407;SDS011;24866;50.248;8.252;2023-04-24T01:15:57;5.10;;;1.92;;
37407;SDS011;24866;50.248;8.252;2023-04-24T01:18:27;4.32;;;2.10;;
37407;SDS011;24866;50.248;8.252;2023-04-24T01:20:59;2.78;;;1.40;;
37407;SDS011;24866;50.248;8.252;2023-04-24T01:23:34;2.38;;;1.35;;
37407;SDS011;24866;50.248;8.252;2023-04-24T01:26:04;5.10;;;1.40;;
37407;SDS011;24866;50.248;8.252;2023-04-24T01:28:35;3.15;;;1.42;;
37407;SDS011;24866;50.248;8.252;2023-04-24T01:31:06;3.47;;;1.50;;
37407;SDS011;24866;50.248;8.252;2023-04-24T01:33:35;4.00;;;1.45;;
37407;SDS011;24866;50.248;8.252;2023-04-24T01:36:06;5.78;;;1.50;;
37407;SDS011;24866;50.248;8.252;2023-04-24T01:38:38;3.08;;;1.40;;
37407;SDS011;24866;50.248;8.252;2023-04-24T01:41:08;4.68;;;1.95;;
37407;SDS011;24866;50.248;8.252;2023-04-24T01:43:38;2.55;;;1.50;;
37407;SDS011;24866;50.248;8.252;2023-04-24T01:46:08;4.88;;;1.55;;
37407;SDS011;24866;50.248;8.252;2023-04-24T01:48:38;2.58;;;1.27;;
37407;SDS011;24866;50.248;8.252;2023-04-24T01:51:08;5.18;;;1.38;;
37407;SDS011;24866;50.248;8.252;2023-04-24T01:53:40;2.85;;;1.38;;
37407;SDS011;24866;50.248;8.252;2023-04-24T01:56:09;3.67;;;1.58;;
37407;SDS011;24866;50.248;8.252;2023-04-24T01:58:40;4.72;;;1.35;;
37407;SDS011;24866;50.248;8.252;2023-04-24T02:01:14;2.95;;;1.40;;
37407;SDS011;24866;50.248;8.252;2023-04-24T02:03:46;1.65;;;1.08;;
37407;SDS011;24866;50.248;8.252;2023-04-24T02:06:16;1.98;;;1.20;;
37407;SDS011;24866;50.248;8.252;2023-04-24T02:08:48;2.70;;;1.10;;
37407;SDS011;24866;50.248;8.252;2023-04-24T02:11:18;1.98;;;0.80;;
37407;SDS011;24866;50.248;8.252;2023-04-24T02:13:47;2.75;;;0.77;;
37407;SDS011;24866;50.248;8.252;2023-04-24T02:16:18;1.50;;;0.77;;
37407;SDS011;24866;50.248;8.252;2023-04-24T02:18:48;2.00;;;0.60;;
37407;SDS011;24866;50.248;8.252;2023-04-24T02:21:18;1.83;;;0.65;;
37407;SDS011;24866;50.248;8.252;2023-04-24T02:23:49;2.60;;;1.10;;
37407;SDS011;24866;50.248;8.252;2023-04-24T02:26:19;1.17;;;0.60;;
37407;SDS011;24866;50.248;8.252;2023-04-24T02:28:49;2.03;;;0.73;;
37407;SDS011;24866;50.248;8.252;2023-04-24T02:31:19;1.85;;;0.70;;
37407;SDS011;24866;50.248;8.252;2023-04-24T02:33:49;2.40;;;0.90;;
37407;SDS011;24866;50.248;8.252;2023-04-24T02:36:19;3.85;;;0.77;;
37407;SDS011;24866;50.248;8.252;2023-04-24T02:38:50;3.45;;;0.68;;
37407;SDS011;24866;50.248;8.252;2023-04-24T02:41:20;3.75;;;0.57;;
37407;SDS011;24866;50.248;8.252;2023-04-24T02:43:52;1.25;;;0.63;;
37407;SDS011;24866;50.248;8.252;2023-04-24T02:46:22;1.05;;;0.47;;
37407;SDS011;24866;50.248;8.252;2023-04-24T02:48:52;1.70;;;0.70;;
37407;SDS011;24866;50.248;8.252;2023-04-24T02:51:22;0.80;;;0.40;;
37407;SDS011;24866;50.248;8.252;2023-04-24T02:53:54;1.55;;;0.80;;
37407;SDS011;24866;50.248;8.252;2023-04-24T02:56:24;2.88;;;1.10;;
37407;SDS011;24866;50.248;8.252;2023-04-24T02:58:54;4.30;;;1.17;;
37407;SDS011;24866;50.248;8.252;2023-04-24T03:01:24;1.63;;;1.05;;
37407;SDS011;24866;50.248;8.252;2023-04-24T03:03:54;2.97;;;1.15;;
37407;SDS011;24866;50.248;8.252;2023-04-24T03:06:28;1.90;;;0.77;;
37407;SDS011;24866;50.248;8.252;2023-04-24T03:09:00;2.28;;;1.15;;
37407;SDS011;24866;50.248;8.252;2023-04-24T03:11:31;4.07;;;0.98;;
37407;SDS011;24866;50.248;8.252;2023-04-24T03:14:01;1.58;;;0.93;;
37407;SDS011;24866;50.248;8.252;2023-04-24T03:16:31;3.05;;;1.00;;
37407;SDS011;24866;50.248;8.252;2023-04-24T03:19:02;2.08;;;1.08;;
37407;SDS011;24866;50.248;8.252;2023-04-24T03:21:32;2.78;;;1.20;;
37407;SDS011;24866;50.248;8.252;2023-04-24T03:24:05;1.58;;;1.00;;
37407;SDS011;24866;50.248;8.252;2023-04-24T03:26:35;2.00;;;1.23;;
37407;SDS011;24866;50.248;8.252;2023-04-24T03:29:05;2.20;;;0.93;;
37407;SDS011;24866;50.248;8.252;2023-04-24T03:31:34;2.72;;;1.05;;
37407;SDS011;24866;50.248;8.252;2023-04-24T03:34:04;2.80;;;0.93;;
37407;SDS011;24866;50.248;8.252;2023-04-24T03:36:34;4.10;;;1.00;;
37407;SDS011;24866;50.248;8.252;2023-04-24T03:39:05;2.70;;;1.40;;
37407;SDS011;24866;50.248;8.252;2023-04-24T03:41:35;2.17;;;1.00;;
37407;SDS011;24866;50.248;8.252;2023-04-24T03:44:05;2.55;;;1.10;;
37407;SDS011;24866;50.248;8.252;2023-04-24T03:46:35;2.63;;;1.17;;
37407;SDS011;24866;50.248;8.252;2023-04-24T03:49:05;3.20;;;1.30;;
37407;SDS011;24866;50.248;8.252;2023-04-24T03:51:35;4.75;;;1.20;;
37407;SDS011;24866;50.248;8.252;2023-04-24T03:54:06;2.15;;;1.00;;
37407;SDS011;24866;50.248;8.252;2023-04-24T03:56:36;2.28;;;1.10;;
37407;SDS011;24866;50.248;8.252;2023-04-24T03:59:06;2.28;;;1.30;;
37407;SDS011;24866;50.248;8.252;2023-04-24T04:01:36;1.90;;;1.15;;
37407;SDS011;24866;50.248;8.252;2023-04-24T04:04:06;3.47;;;1.30;;
37407;SDS011;24866;50.248;8.252;2023-04-24T04:09:12;3.10;;;1.17;;
37407;SDS011;24866;50.248;8.252;2023-04-24T04:11:42;5.30;;;1.30;;
37407;SDS011;24866;50.248;8.252;2023-04-24T04:14:11;3.45;;;1.05;;
37407;SDS011;24866;50.248;8.252;2023-04-24T04:16:41;2.35;;;1.50;;
37407;SDS011;24866;50.248;8.252;2023-04-24T04:19:11;2.10;;;1.30;;
37407;SDS011;24866;50.248;8.252;2023-04-24T04:21:41;1.80;;;1.27;;
37407;SDS011;24866;50.248;8.252;2023-04-24T04:24:12;3.78;;;1.40;;
37407;SDS011;24866;50.248;8.252;2023-04-24T04:26:42;1.75;;;1.30;;
37407;SDS011;24866;50.248;8.252;2023-04-24T04:29:14;3.08;;;1.65;;
37407;SDS011;24866;50.248;8.252;2023-04-24T04:31:44;2.38;;;1.40;;
37407;SDS011;24866;50.248;8.252;2023-04-24T04:34:14;2.25;;;1.15;;
37407;SDS011;24866;50.248;8.252;2023-04-24T04:36:44;2.35;;;1.20;;
37407;SDS011;24866;50.248;8.252;2023-04-24T04:39:15;3.92;;;1.20;;
37407;SDS011;24866;50.248;8.252;2023-04-24T04:41:46;2.13;;;1.08;;
37407;SDS011;24866;50.248;8.252;2023-04-24T04:44:16;3.55;;;1.17;;
37407;SDS011;24866;50.248;8.252;2023-04-24T04:46:46;3.55;;;1.33;;
37407;SDS011;24866;50.248;8.252;2023-04-24T04:49:16;3.00;;;1.38;;
37407;SDS011;24866;50.248;8.252;2023-04-24T04:51:46;4.07;;;1.40;;
37407;SDS011;24866;50.248;8.252;2023-04-24T04:54:18;3.47;;;1.23;;
37407;SDS011;24866;50.248;8.252;2023-04-24T04:56:49;2.65;;;1.50;;
37407;SDS011;24866;50.248;8.252;2023-04-24T04:59:19;5.13;;;2.13;;
37407;SDS011;24866;50.248;8.252;2023-04-24T05:01:49;3.33;;;1.65;;
37407;SDS011;24866;50.248;8.252;2023-04-24T05:04:19;4.03;;;1.38;;
37407;SDS011;24866;50.248;8.252;2023-04-24T05:06:49;2.67;;;1.27;;
37407;SDS011;24866;50.248;8.252;2023-04-24T05:09:21;2.33;;;1.33;;
37407;SDS011;24866;50.248;8.252;2023-04-24T05:11:51;3.17;;;1.25;;
37407;SDS011;24866;50.248;8.252;2023-04-24T05:14:21;3.10;;;1.17;;
37407;SDS011;24866;50.248;8.252;2023-04-24T05:16:51;2.42;;;1.17;;
37407;SDS011;24866;50.248;8.252;2023-04-24T05:19:21;2.15;;;1.20;;
37407;SDS011;24866;50.248;8.252;2023-04-24T05:21:51;3.17;;;1.58;;
37407;SDS011;24866;50.248;8.252;2023-04-24T05:24:22;3.95;;;1.33;;
37407;SDS011;24866;50.248;8.252;2023-04-24T05:26:52;3.58;;;1.75;;
37407;SDS011;24866;50.248;8.252;2023-04-24T05:29:22;3.72;;;1.80;;
37407;SDS011;24866;50.248;8.252;2023-04-24T05:31:52;3.35;;;1.33;;
37407;SDS011;24866;50.248;8.252;2023-04-24T05:34:22;4.60;;;1.58;;
37407;SDS011;24866;50.248;8.252;2023-04-24T05:36:52;3.38;;;1.63;;
37407;SDS011;24866;50.248;8.252;2023-04-24T05:39:24;2.53;;;1.70;;
37407;SDS011;24866;50.248;8.252;2023-04-24T05:41:54;2.58;;;1.60;;
37407;SDS011;24866;50.248;8.252;2023-04-24T05:44:26;3.83;;;1.57;;
37407;SDS011;24866;50.248;8.252;2023-04-24T05:46:55;2.67;;;1.60;;
37407;SDS011;24866;50.248;8.252;2023-04-24T05:49:25;4.75;;;2.35;;
37407;SDS011;24866;50.248;8.252;2023-04-24T05:51:56;3.47;;;2.30;;
37407;SDS011;24866;50.248;8.252;2023-04-24T05:54:28;6.45;;;2.40;;
37407;SDS011;24866;50.248;8.252;2023-04-24T05:56:58;5.68;;;2.60;;
37407;SDS011;24866;50.248;8.252;2023-04-24T05:59:29;4.78;;;2.53;;
37407;SDS011;24866;50.248;8.252;2023-04-24T06:01:59;6.43;;;2.55;;
37407;SDS011;24866;50.248;8.252;2023-04-24T06:04:29;6.07;;;2.50;;
37407;SDS011;24866;50.248;8.252;2023-04-24T06:06:59;5.13;;;2.42;;
37407;SDS011;24866;50.248;8.252;2023-04-24T06:09:30;5.68;;;2.75;;
37407;SDS011;24866;50.248;8.252;2023-04-24T06:12:00;5.07;;;3.00;;
37407;SDS011;24866;50.248;8.252;2023-04-24T06:14:30;4.95;;;3.08;;
37407;SDS011;24866;50.248;8.252;2023-04-24T06:17:00;7.70;;;4.32;;
37407;SDS011;24866;50.248;8.252;2023-04-24T06:19:30;4.90;;;2.97;;
37407;SDS011;24866;50.248;8.252;2023-04-24T06:22:00;7.88;;;4.53;;
37407;SDS011;24866;50.248;8.252;2023-04-24T06:24:31;6.45;;;3.75;;
37407;SDS011;24866;50.248;8.252;2023-04-24T06:27:03;8.57;;;3.47;;
37407;SDS011;24866;50.248;8.252;2023-04-24T06:29:33;7.05;;;3.47;;
37407;SDS011;24866;50.248;8.252;2023-04-24T06:32:03;7.07;;;3.75;;
37407;SDS011;24866;50.248;8.252;2023-04-24T06:34:33;6.28;;;3.42;;
37407;SDS011;24866;50.248;8.252;2023-04-24T06:37:03;6.07;;;3.38;;
37407;SDS011;24866;50.248;8.252;2023-04-24T06:39:34;5.57;;;3.42;;
37407;SDS011;24866;50.248;8.252;2023-04-24T06:42:04;6.22;;;3.50;;
37407;SDS011;24866;50.248;8.252;2023-04-24T06:44:36;5.63;;;3.38;;
37407;SDS011;24866;50.248;8.252;2023-04-24T06:49:38;5.65;;;3.10;;
37407;SDS011;24866;50.248;8.252;2023-04-24T06:52:09;6.28;;;3.63;;
37407;SDS011;24866;50.248;8.252;2023-04-24T06:54:41;6.13;;;3.50;;
37407;SDS011;24866;50.248;8.252;2023-04-24T06:57:11;6.55;;;3.72;;
37407;SDS011;24866;50.248;8.252;2023-04-24T06:59:41;6.55;;;3.50;;
37407;SDS011;24866;50.248;8.252;2023-04-24T07:02:11;6.63;;;3.47;;
37407;SDS011;24866;50.248;8.252;2023-04-24T07:04:41;4.63;;;3.10;;
37407;SDS011;24866;50.248;8.252;2023-04-24T07:07:11;6.00;;;3.00;;
37407;SDS011;24866;50.248;8.252;2023-04-24T07:09:43;5.20;;;3.30;;
37407;SDS011;24866;50.248;8.252;2023-04-24T07:12:13;3.92;;;2.88;;
37407;SDS011;24866;50.248;8.252;2023-04-24T07:14:45;4.20;;;2.80;;
37407;SDS011;24866;50.248;8.252;2023-04-24T07:17:17;6.53;;;3.13;;
37407;SDS011;24866;50.248;8.252;2023-04-24T07:19:47;4.63;;;2.75;;
37407;SDS011;24866;50.248;8.252;2023-04-24T07:22:17;3.75;;;2.63;;
37407;SDS011;24866;50.248;8.252;2023-04-24T07:24:48;2.95;;;1.83;;
37407;SDS011;24866;50.248;8.252;2023-04-24T07:27:18;4.25;;;2.50;;
37407;SDS011;24866;50.248;8.252;2023-04-24T07:29:48;4.30;;;2.42;;
37407;SDS011;24866;50.248;8.252;2023-04-24T07:32:18;6.22;;;2.80;;
37407;SDS011;24866;50.248;8.252;2023-04-24T07:34:48;4.97;;;3.00;;
37407;SDS011;24866;50.248;8.252;2023-04-24T07:37:18;4.03;;;2.30;;
37407;SDS011;24866;50.248;8.252;2023-04-24T07:39:49;3.35;;;2.53;;
37407;SDS011;24866;50.248;8.252;2023-04-24T07:42:19;4.72;;;2.10;;
37407;SDS011;24866;50.248;8.252;2023-04-24T07:44:49;4.05;;;2.13;;
37407;SDS011;24866;50.248;8.252;2023-04-24T07:47:19;4.30;;;2.38;;
37407;SDS011;24866;50.248;8.252;2023-04-24T07:49:49;3.80;;;2.65;;
37407;SDS011;24866;50.248;8.252;2023-04-24T07:52:19;4.20;;;2.60;;
37407;SDS011;24866;50.248;8.252;2023-04-24T07:54:50;4.95;;;2.45;;
37407;SDS011;24866;50.248;8.252;2023-04-24T07:57:26;5.30;;;2.90;;
37407;SDS011;24866;50.248;8.252;2023-04-24T07:59:56;6.35;;;2.60;;
37407;SDS011;24866;50.248;8.252;2023-04-24T08:02:26;6.05;;;2.58;;
37407;SDS011;24866;50.248;8.252;2023-04-24T08:04:56;4.57;;;2.50;;
37407;SDS011;24866;50.248;8.252;2023-04-24T08:07:26;5.13;;;2.40;;
37407;SDS011;24866;50.248;8.252;2023-04-24T08:09:57;3.83;;;2.35;;
37407;SDS011;24866;50.248;8.252;2023-04-24T08:12:28;3.60;;;2.38;;
37407;SDS011;24866;50.248;8.252;2023-04-24T08:14:58;5.07;;;2.35;;
37407;SDS011;24866;50.248;8.252;2023-04-24T08:17:28;5.50;;;2.45;;
37407;SDS011;24866;50.248;8.252;2023-04-24T08:19:58;3.08;;;2.03;;
37407;SDS011;24866;50.248;8.252;2023-04-24T08:22:29;2.85;;;1.58;;
37407;SDS011;24866;50.248;8.252;2023-04-24T08:25:01;4.47;;;2.50;;
37407;SDS011;24866;50.248;8.252;2023-04-24T08:27:31;5.50;;;2.40;;
37407;SDS011;24866;50.248;8.252;2023-04-24T08:30:01;2.80;;;1.63;;
37407;SDS011;24866;50.248;8.252;2023-04-24T08:32:32;3.30;;;1.60;;
37407;SDS011;24866;50.248;8.252;2023-04-24T08:35:02;3.15;;;1.73;;
37407;SDS011;24866;50.248;8.252;2023-04-24T08:37:32;3.70;;;2.50;;
37407;SDS011;24866;50.248;8.252;2023-04-24T08:40:04;3.65;;;1.95;;
37407;SDS011;24866;50.248;8.252;2023-04-24T08:42:39;3.65;;;2.33;;
37407;SDS011;24866;50.248;8.252;2023-04-24T08:45:11;2.60;;;1.83;;
37407;SDS011;24866;50.248;8.252;2023-04-24T08:47:41;4.72;;;2.10;;
37407;SDS011;24866;50.248;8.252;2023-04-24T08:50:12;4.07;;;1.92;;
37407;SDS011;24866;50.248;8.252;2023-04-24T08:52:43;3.10;;;1.88;;
37407;SDS011;24866;50.248;8.252;2023-04-24T08:55:14;3.30;;;1.88;;
37407;SDS011;24866;50.248;8.252;2023-04-24T08:57:49;2.90;;;1.60;;
37407;SDS011;24866;50.248;8.252;2023-04-24T09:00:20;2.30;;;1.48;;
37407;SDS011;24866;50.248;8.252;2023-04-24T09:02:54;4.10;;;1.50;;
37407;SDS011;24866;50.248;8.252;2023-04-24T09:05:25;2.75;;;1.50;;
37407;SDS011;24866;50.248;8.252;2023-04-24T09:07:56;2.60;;;1.67;;
37407;SDS011;24866;50.248;8.252;2023-04-24T09:10:28;2.33;;;1.55;;
37407;SDS011;24866;50.248;8.252;2023-04-24T09:12:58;2.97;;;1.40;;
37407;SDS011;24866;50.248;8.252;2023-04-24T09:15:30;2.92;;;1.50;;
37407;SDS011;24866;50.248;8.252;2023-04-24T09:18:00;2.38;;;1.20;;
37407;SDS011;24866;50.248;8.252;2023-04-24T09:20:30;1.40;;;0.80;;
37407;SDS011;24866;50.248;8.252;2023-04-24T09:23:01;2.83;;;1.25;;
37407;SDS011;24866;50.248;8.252;2023-04-24T09:25:33;2.90;;;1.38;;
37407;SDS011;24866;50.248;8.252;2023-04-24T09:28:05;3.42;;;1.40;;
37407;SDS011;24866;50.248;8.252;2023-04-24T09:30:35;4.20;;;1.42;;
37407;SDS011;24866;50.248;8.252;2023-04-24T09:33:12;2.33;;;1.20;;
37407;SDS011;24866;50.248;8.252;2023-04-24T09:35:43;1.92;;;1.42;;
37407;SDS011;24866;50.248;8.252;2023-04-24T09:38:20;3.22;;;1.20;;
37407;SDS011;24866;50.248;8.252;2023-04-24T09:41:02;2.35;;;1.23;;
37407;SDS011;24866;50.248;8.252;2023-04-24T09:43:34;2.42;;;1.02;;
37407;SDS011;24866;50.248;8.252;2023-04-24T09:46:05;1.33;;;0.82;;
37407;SDS011;24866;50.248;8.252;2023-04-24T09:48:37;2.53;;;1.23;;
37407;SDS011;24866;50.248;8.252;2023-04-24T09:51:07;2.38;;;1.05;;
37407;SDS011;24866;50.248;8.252;2023-04-24T09:53:39;2.55;;;0.93;;
37407;SDS011;24866;50.248;8.252;2023-04-24T09:56:11;3.25;;;1.05;;
37407;SDS011;24866;50.248;8.252;2023-04-24T09:58:41;2.95;;;0.93;;
37407;SDS011;24866;50.248;8.252;2023-04-24T10:01:11;1.80;;;1.30;;
37407;SDS011;24866;50.248;8.252;2023-04-24T10:03:42;3.50;;;1.60;;
37407;SDS011;24866;50.248;8.252;2023-04-24T10:06:12;2.72;;;1.13;;
37407;SDS011;24866;50.248;8.252;2023-04-24T10:08:43;3.03;;;1.20;;
37407;SDS011;24866;50.248;8.252;2023-04-24T10:11:16;2.08;;;1.00;;
37407;SDS011;24866;50.248;8.252;2023-04-24T10:13:46;4.03;;;1.20;;
37407;SDS011;24866;50.248;8.252;2023-04-24T10:16:16;1.75;;;1.00;;
37407;SDS011;24866;50.248;8.252;2023-04-24T10:18:46;3.10;;;1.10;;
37407;SDS011;24866;50.248;8.252;2023-04-24T10:21:17;10.73;;;1.90;;
37407;SDS011;24866;50.248;8.252;2023-04-24T10:23:47;1.70;;;0.95;;
37407;SDS011;24866;50.248;8.252;2023-04-24T10:26:19;0.55;;;0.32;;
37407;SDS011;24866;50.248;8.252;2023-04-24T10:28:50;1.00;;;0.60;;
37407;SDS011;24866;50.248;8.252;2023-04-24T10:31:21;1.15;;;0.85;;
37407;SDS011;24866;50.248;8.252;2023-04-24T10:33:52;4.68;;;1.08;;
37407;SDS011;24866;50.248;8.252;2023-04-24T10:36:23;0.90;;;0.52;;
37407;SDS011;24866;50.248;8.252;2023-04-24T10:38:55;2.88;;;0.95;;
37407;SDS011;24866;50.248;8.252;2023-04-24T10:44:05;1.02;;;0.60;;
37407;SDS011;24866;50.248;8.252;2023-04-24T10:46:36;5.07;;;1.50;;
37407;SDS011;24866;50.248;8.252;2023-04-24T10:49:07;1.60;;;0.80;;
37407;SDS011;24866;50.248;8.252;2023-04-24T10:51:47;1.65;;;0.57;;
37407;SDS011;24866;50.248;8.252;2023-04-24T10:54:22;2.03;;;0.93;;
37407;SDS011;24866;50.248;8.252;2023-04-24T10:57:25;1.95;;;1.00;;
37407;SDS011;24866;50.248;8.252;2023-04-24T11:00:11;1.33;;;1.00;;
37407;SDS011;24866;50.248;8.252;2023-04-24T11:02:45;4.13;;;1.33;;
37407;SDS011;24866;50.248;8.252;2023-04-24T11:05:18;3.22;;;1.23;;
37407;SDS011;24866;50.248;8.252;2023-04-24T11:10:45;5.50;;;1.67;;
37407;SDS011;24866;50.248;8.252;2023-04-24T11:13:21;2.25;;;1.35;;
37407;SDS011;24866;50.248;8.252;2023-04-24T11:18:44;2.40;;;1.20;;
37407;SDS011;24866;50.248;8.252;2023-04-24T11:21:18;1.50;;;0.63;;
37407;SDS011;24866;50.248;8.252;2023-04-24T11:23:48;2.38;;;1.25;;
37407;SDS011;24866;50.248;8.252;2023-04-24T11:26:19;2.50;;;1.52;;
37407;SDS011;24866;50.248;8.252;2023-04-24T11:28:54;4.85;;;1.02;;
37407;SDS011;24866;50.248;8.252;2023-04-24T11:31:36;3.30;;;1.58;;
37407;SDS011;24866;50.248;8.252;2023-04-24T11:34:09;3.83;;;1.67;;
37407;SDS011;24866;50.248;8.252;2023-04-24T11:36:43;5.10;;;1.92;;
37407;SDS011;24866;50.248;8.252;2023-04-24T11:39:13;2.73;;;1.43;;
37407;SDS011;24866;50.248;8.252;2023-04-24T11:41:44;2.63;;;1.48;;
37407;SDS011;24866;50.248;8.252;2023-04-24T11:44:16;4.22;;;1.98;;
37407;SDS011;24866;50.248;8.252;2023-04-24T11:46:51;4.72;;;1.85;;
37407;SDS011;24866;50.248;8.252;2023-04-24T11:49:21;4.38;;;1.92;;
37407;SDS011;24866;50.248;8.252;2023-04-24T11:51:54;3.72;;;2.17;;
37407;SDS011;24866;50.248;8.252;2023-04-24T11:54:24;2.60;;;1.42;;
37407;SDS011;24866;50.248;8.252;2023-04-24T11:56:55;5.15;;;2.35;;
37407;SDS011;24866;50.248;8.252;2023-04-24T11:59:27;4.65;;;2.17;;
37407;SDS011;24866;50.248;8.252;2023-04-24T12:01:57;4.50;;;2.50;;
37407;SDS011;24866;50.248;8.252;2023-04-24T12:04:38;5.13;;;2.38;;
37407;SDS011;24866;50.248;8.252;2023-04-24T12:07:08;8.50;;;2.45;;
37407;SDS011;24866;50.248;8.252;2023-04-24T12:09:42;6.30;;;2.25;;
37407;SDS011;24866;50.248;8.252;2023-04-24T12:12:13;4.82;;;2.33;;
37407;SDS011;24866;50.248;8.252;2023-04-24T12:14:48;3.85;;;1.98;;
37407;SDS011;24866;50.248;8.252;2023-04-24T12:17:23;5.95;;;2.28;;
37407;SDS011;24866;50.248;8.252;2023-04-24T12:19:57;4.63;;;2.53;;
37407;SDS011;24866;50.248;8.252;2023-04-24T12:22:42;4.85;;;2.40;;
37407;SDS011;24866;50.248;8.252;2023-04-24T12:25:14;8.95;;;3.40;;
37407;SDS011;24866;50.248;8.252;2023-04-24T12:27:45;8.10;;;3.25;;
37407;SDS011;24866;50.248;8.252;2023-04-24T12:30:18;5.47;;;3.45;;
37407;SDS011;24866;50.248;8.252;2023-04-24T12:32:48;8.52;;;3.75;;
37407;SDS011;24866;50.248;8.252;2023-04-24T12:35:20;6.72;;;3.63;;
37407;SDS011;24866;50.248;8.252;2023-04-24T12:37:51;8.88;;;3.63;;
37407;SDS011;24866;50.248;8.252;2023-04-24T12:40:25;5.95;;;3.33;;
37407;SDS011;24866;50.248;8.252;2023-04-24T12:42:57;6.50;;;4.03;;
37407;SDS011;24866;50.248;8.252;2023-04-24T12:45:28;6.60;;;3.17;;
37407;SDS011;24866;50.248;8.252;2023-04-24T12:47:58;4.90;;;3.80;;
37407;SDS011;24866;50.248;8.252;2023-04-24T12:50:37;7.55;;;2.90;;
37407;SDS011;24866;50.248;8.252;2023-04-24T12:53:08;6.18;;;3.30;;
37407;SDS011;24866;50.248;8.252;2023-04-24T12:55:38;5.20;;;3.28;;
37407;SDS011;24866;50.248;8.252;2023-04-24T12:58:08;6.07;;;3.13;;
37407;SDS011;24866;50.248;8.252;2023-04-24T13:00:38;6.03;;;3.35;;
37407;SDS011;24866;50.248;8.252;2023-04-24T13:03:11;6.32;;;3.38;;
37407;SDS011;24866;50.248;8.252;2023-04-24T13:05:43;6.40;;;3.40;;
37407;SDS011;24866;50.248;8.252;2023-04-24T13:08:13;6.93;;;2.30;;
37407;SDS011;24866;50.248;8.252;2023-04-24T13:10:43;5.32;;;2.45;;
37407;SDS011;24866;50.248;8.252;2023-04-24T13:13:14;7.03;;;2.50;;
37407;SDS011;24866;50.248;8.252;2023-04-24T13:15:44;4.85;;;2.95;;
37407;SDS011;24866;50.248;8.252;2023-04-24T13:18:14;6.25;;;3.30;;
37407;SDS011;24866;50.248;8.252;2023-04-24T13:20:46;8.68;;;4.10;;
37407;SDS011;24866;50.248;8.252;2023-04-24T13:23:16;5.60;;;3.42;;
37407;SDS011;24866;50.248;8.252;2023-04-24T13:25:47;5.80;;;3.53;;
37407;SDS011;24866;50.248;8.252;2023-04-24T13:28:17;6.32;;;2.95;;
37407;SDS011;24866;50.248;8.252;2023-04-24T13:30:48;6.53;;;3.03;;
37407;SDS011;24866;50.248;8.252;2023-04-24T13:33:18;7.22;;;3.58;;
37407;SDS011;24866;50.248;8.252;2023-04-24T13:35:49;10.63;;;4.68;;
37407;SDS011;24866;50.248;8.252;2023-04-24T13:38:19;6.78;;;3.53;;
37407;SDS011;24866;50.248;8.252;2023-04-24T13:40:50;7.38;;;3.25;;
37407;SDS011;24866;50.248;8.252;2023-04-24T13:43:20;7.80;;;3.35;;
37407;SDS011;24866;50.248;8.252;2023-04-24T13:45:50;7.03;;;3.97;;
37407;SDS011;24866;50.248;8.252;2023-04-24T13:48:21;6.97;;;3.75;;
37407;SDS011;24866;50.248;8.252;2023-04-24T13:50:52;6.32;;;3.65;;
37407;SDS011;24866;50.248;8.252;2023-04-24T13:53:23;5.57;;;3.43;;
37407;SDS011;24866;50.248;8.252;2023-04-24T13:55:53;10.35;;;4.68;;
37407;SDS011;24866;50.248;8.252;2023-04-24T13:58:24;7.28;;;3.35;;
37407;SDS011;24866;50.248;8.252;2023-04-24T14:00:54;8.90;;;3.30;;
37407;SDS011;24866;50.248;8.252;2023-04-24T14:03:24;7.93;;;4.00;;
37407;SDS011;24866;50.248;8.252;2023-04-24T14:05:56;7.65;;;3.05;;
37407;SDS011;24866;50.248;8.252;2023-04-24T14:08:27;8.13;;;3.87;;
37407;SDS011;24866;50.248;8.252;2023-04-24T14:10:58;10.00;;;3.58;;
37407;SDS011;24866;50.248;8.252;2023-04-24T14:13:29;5.13;;;3.30;;
37407;SDS011;24866;50.248;8.252;2023-04-24T14:15:59;9.38;;;3.03;;
37407;SDS011;24866;50.248;8.252;2023-04-24T14:18:29;8.30;;;3.47;;
37407;SDS011;24866;50.248;8.252;2023-04-24T14:21:02;5.82;;;2.85;;
37407;SDS011;24866;50.248;8.252;2023-04-24T14:26:03;7.00;;;3.50;;
37407;SDS011;24866;50.248;8.252;2023-04-24T14:28:34;7.73;;;3.00;;
37407;SDS011;24866;50.248;8.252;2023-04-24T14:31:05;7.10;;;2.53;;
37407;SDS011;24866;50.248;8.252;2023-04-24T14:33:35;7.22;;;2.85;;
37407;SDS011;24866;50.248;8.252;2023-04-24T14:36:07;5.70;;;3.03;;
37407;SDS011;24866;50.248;8.252;2023-04-24T14:38:37;5.40;;;3.05;;
37407;SDS011;24866;50.248;8.252;2023-04-24T14:41:07;6.53;;;2.80;;
37407;SDS011;24866;50.248;8.252;2023-04-24T14:43:40;5.45;;;3.00;;
37407;SDS011;24866;50.248;8.252;2023-04-24T14:46:10;5.45;;;3.05;;
37407;SDS011;24866;50.248;8.252;2023-04-24T14:48:40;6.93;;;2.95;;
37407;SDS011;24866;50.248;8.252;2023-04-24T14:51:11;4.57;;;2.60;;
37407;SDS011;24866;50.248;8.252;2023-04-24T14:53:41;4.75;;;2.50;;
37407;SDS011;24866;50.248;8.252;2023-04-24T14:56:11;7.65;;;2.97;;
37407;SDS011;24866;50.248;8.252;2023-04-24T14:58:41;5.88;;;2.70;;
37407;SDS011;24866;50.248;8.252;2023-04-24T15:01:12;4.68;;;2.80;;
37407;SDS011;24866;50.248;8.252;2023-04-24T15:03:42;7.72;;;3.10;;
37407;SDS011;24866;50.248;8.252;2023-04-24T15:06:14;8.82;;;2.80;;
37407;SDS011;24866;50.248;8.252;2023-04-24T15:08:44;7.67;;;3.33;;
37407;SDS011;24866;50.248;8.252;2023-04-24T15:11:14;6.68;;;2.58;;
37407;SDS011;24866;50.248;8.252;2023-04-24T15:13:45;5.63;;;3.13;;
37407;SDS011;24866;50.248;8.252;2023-04-24T15:16:14;5.28;;;3.00;;
37407;SDS011;24866;50.248;8.252;2023-04-24T15:18:46;4.13;;;2.50;;
37407;SDS011;24866;50.248;8.252;2023-04-24T15:21:18;4.38;;;2.08;;
37407;SDS011;24866;50.248;8.252;2023-04-24T15:23:49;5.90;;;3.00;;
37407;SDS011;24866;50.248;8.252;2023-04-24T15:26:19;7.63;;;3.03;;